createdAt,value
2022-11-04T00:01:55.084Z,0.60
2022-11-04T00:04:24.532Z,0.60
2022-11-04T00:06:54.222Z,0.50
2022-11-04T00:09:24.719Z,0.40
2022-11-04T00:12:10.343Z,0.47
2022-11-04T00:14:38.303Z,0.50
2022-11-04T00:17:22.183Z,0.60
2022-11-04T00:20:09.431Z,0.70
2022-11-04T00:22:56.842Z,0.53
2022-11-04T00:28:34.125Z,0.60
2022-11-04T00:31:24.121Z,0.70
2022-11-04T00:33:52.556Z,0.73
2022-11-04T00:36:20.890Z,0.70
2022-11-04T00:38:49.875Z,0.87
2022-11-04T00:41:28.223Z,0.70
2022-11-04T00:43:57.672Z,0.60
2022-11-04T00:46:25.496Z,0.50
2022-11-04T00:48:53.281Z,0.50
2022-11-04T00:51:21.778Z,0.50
2022-11-04T00:53:51.202Z,0.43
2022-11-04T00:56:19.009Z,0.50
2022-11-04T00:58:49.527Z,0.40
2022-11-04T01:01:18.946Z,0.30
2022-11-04T01:03:48.157Z,0.40
2022-11-04T01:06:15.969Z,0.70
2022-11-04T01:08:44.006Z,0.83
2022-11-04T01:11:13.807Z,0.80
2022-11-04T01:13:42.053Z,0.70
2022-11-04T01:16:12.966Z,0.30
2022-11-04T01:18:41.293Z,0.40
2022-11-04T01:21:10.268Z,0.33
2022-11-04T01:23:38.184Z,0.37
2022-11-04T01:26:06.548Z,0.43
2022-11-04T01:28:35.623Z,0.30
2022-11-04T01:31:07.401Z,0.60
2022-11-04T01:33:35.396Z,0.90
2022-11-04T01:36:03.560Z,0.83
2022-11-04T01:38:31.317Z,0.60
2022-11-04T01:40:59.733Z,0.77
2022-11-04T01:43:46.433Z,0.80
2022-11-04T01:46:23.126Z,0.67
2022-11-04T01:48:51.887Z,0.80
2022-11-04T01:51:20.400Z,0.70
2022-11-04T01:53:49.477Z,0.83
2022-11-04T01:56:18.060Z,1.20
2022-11-04T01:58:50.739Z,1.10
2022-11-04T02:01:18.901Z,1.33
2022-11-04T02:03:52.649Z,0.93
2022-11-04T02:06:22.128Z,1.50
2022-11-04T02:08:50.143Z,2.20
2022-11-04T02:11:32.009Z,2.37
2022-11-04T02:14:02.059Z,2.73
2022-11-04T02:16:39.841Z,3.07
2022-11-04T02:19:25.693Z,3.23
2022-11-04T02:22:27.329Z,3.30
2022-11-04T02:25:28.812Z,3.23
2022-11-04T02:28:34.338Z,3.90
2022-11-04T02:31:13.842Z,3.87
2022-11-04T02:33:48.401Z,3.97
2022-11-04T02:36:23.191Z,3.73
2022-11-04T02:38:56.404Z,4.13
2022-11-04T02:41:36.988Z,3.77
2022-11-04T02:44:16.057Z,3.53
2022-11-04T02:46:50.911Z,3.60
2022-11-04T02:49:24.619Z,3.13
2022-11-04T02:51:57.118Z,3.20
2022-11-04T02:54:29.548Z,3.33
2022-11-04T02:56:59.955Z,2.97
2022-11-04T02:59:33.907Z,3.03
2022-11-04T03:02:06.498Z,2.77
2022-11-04T03:04:38.470Z,3.20
2022-11-04T03:07:09.417Z,2.77
2022-11-04T03:09:40.285Z,2.73
2022-11-04T03:12:14.849Z,2.10
2022-11-04T03:14:47.878Z,2.50
2022-11-04T03:17:22.209Z,2.33
2022-11-04T03:19:55.285Z,2.50
2022-11-04T03:22:26.821Z,2.13
2022-11-04T03:24:55.596Z,1.70
2022-11-04T03:27:29.457Z,2.17
2022-11-04T03:30:02.464Z,2.00
2022-11-04T03:32:42.522Z,1.97
2022-11-04T03:35:12.496Z,1.70
2022-11-04T03:37:40.262Z,1.70
2022-11-04T03:40:09.614Z,1.50
2022-11-04T03:42:46.221Z,1.10
2022-11-04T03:45:15.417Z,1.67
2022-11-04T03:47:44.968Z,1.80
2022-11-04T03:50:20.163Z,1.47
2022-11-04T03:52:48.049Z,1.60
2022-11-04T03:55:16.632Z,1.30
2022-11-04T03:57:53.238Z,1.50
2022-11-04T04:00:22.854Z,1.50
2022-11-04T04:03:03.139Z,1.67
2022-11-04T04:05:33.188Z,1.40
2022-11-04T04:08:13.356Z,1.60
2022-11-04T04:10:46.677Z,1.30
2022-11-04T04:13:21.964Z,1.33
2022-11-04T04:15:54.240Z,1.27
2022-11-04T04:18:31.786Z,1.20
2022-11-04T04:21:02.808Z,1.60
2022-11-04T04:23:52.944Z,1.43
2022-11-04T04:26:40.703Z,1.53
2022-11-04T04:29:10.096Z,1.13
2022-11-04T04:31:53.849Z,1.37
2022-11-04T04:34:24.804Z,1.33
2022-11-04T04:36:57.490Z,1.13
2022-11-04T04:39:47.436Z,1.70
2022-11-04T04:42:32.467Z,1.57
2022-11-04T04:45:04.357Z,1.90
2022-11-04T04:47:40.979Z,1.80
2022-11-04T04:50:12.213Z,1.70
2022-11-04T04:52:42.716Z,2.23
2022-11-04T04:55:11.708Z,2.23
2022-11-04T04:57:39.738Z,2.43
2022-11-04T05:00:11.226Z,1.67
2022-11-04T05:02:38.963Z,2.10
2022-11-04T05:05:08.581Z,1.77
2022-11-04T05:07:37.738Z,2.17
2022-11-04T05:10:06.004Z,2.17
2022-11-04T05:12:49.762Z,1.97
2022-11-04T05:15:17.725Z,1.90
2022-11-04T05:17:45.402Z,1.60
2022-11-04T05:20:13.362Z,2.20
2022-11-04T05:22:42.369Z,2.37
2022-11-04T05:25:10.238Z,2.00
2022-11-04T05:27:37.924Z,2.27
2022-11-04T05:30:06.717Z,1.90
2022-11-04T05:32:34.406Z,2.10
2022-11-04T05:35:02.053Z,2.23
2022-11-04T05:37:29.992Z,2.77
2022-11-04T05:39:59.037Z,2.10
2022-11-04T05:42:26.946Z,2.27
2022-11-04T05:44:54.624Z,2.30
2022-11-04T05:47:22.329Z,2.23
2022-11-04T05:49:50.065Z,2.47
2022-11-04T05:52:17.780Z,2.40
2022-11-04T05:54:45.531Z,2.07
2022-11-04T05:57:14.605Z,2.80
2022-11-04T05:59:42.282Z,2.50
2022-11-04T06:02:10.187Z,2.50
2022-11-04T06:04:38.318Z,2.40
2022-11-04T06:07:06.057Z,2.53
2022-11-04T06:09:42.946Z,2.47
2022-11-04T06:12:14.954Z,3.07
2022-11-04T06:14:44.125Z,2.37
2022-11-04T06:17:16.211Z,2.13
2022-11-04T06:19:43.944Z,2.30
2022-11-04T06:22:13.636Z,2.07
2022-11-04T06:24:42.121Z,2.90
2022-11-04T06:27:10.784Z,2.03
2022-11-04T06:29:41.075Z,2.63
2022-11-04T06:32:12.048Z,2.40
2022-11-04T06:34:40.212Z,2.50
2022-11-04T06:37:08.502Z,2.57
2022-11-04T06:39:36.347Z,2.60
2022-11-04T06:42:04.921Z,2.40
2022-11-04T06:44:33.959Z,2.20
2022-11-04T06:47:01.865Z,2.10
2022-11-04T06:49:30.990Z,2.20
2022-11-04T06:51:59.014Z,1.77
2022-11-04T06:54:26.689Z,2.30
2022-11-04T06:56:54.368Z,2.20
2022-11-04T06:59:22.351Z,2.17
2022-11-04T07:01:50.791Z,2.10
2022-11-04T07:04:19.446Z,2.50
2022-11-04T07:06:48.670Z,2.60
2022-11-04T07:09:17.215Z,2.73
2022-11-04T07:11:45.727Z,2.87
2022-11-04T07:14:14.228Z,3.07
2022-11-04T07:16:41.976Z,2.57
2022-11-04T07:19:09.745Z,2.77
2022-11-04T07:21:37.623Z,2.93
2022-11-04T07:24:07.644Z,2.87
2022-11-04T07:26:35.593Z,3.20
2022-11-04T07:29:03.363Z,3.50
2022-11-04T07:31:31.207Z,3.23
2022-11-04T07:33:58.953Z,3.53
2022-11-04T07:36:26.677Z,3.97
2022-11-04T07:38:55.255Z,3.77
2022-11-04T07:41:24.648Z,3.60
2022-11-04T07:43:53.477Z,3.70
2022-11-04T07:46:22.376Z,4.27
2022-11-04T07:48:50.113Z,4.33
2022-11-04T07:51:20.308Z,4.20
2022-11-04T07:53:48.307Z,4.30
2022-11-04T07:56:16.463Z,4.73
2022-11-04T07:58:46.308Z,4.57
2022-11-04T08:01:16.251Z,4.43
2022-11-04T08:03:43.992Z,4.50
2022-11-04T08:06:15.595Z,4.63
2022-11-04T08:08:44.226Z,4.27
2022-11-04T08:11:17.713Z,4.40
2022-11-04T08:13:47.910Z,3.83
2022-11-04T08:16:19.892Z,3.90
2022-11-04T08:18:48.773Z,3.80
2022-11-04T08:21:17.384Z,4.00
2022-11-04T08:23:46.097Z,3.00
2022-11-04T08:26:16.549Z,3.43
2022-11-04T08:28:44.860Z,3.27
2022-11-04T08:31:17.356Z,3.10
2022-11-04T08:33:45.766Z,3.20
2022-11-04T08:36:16.360Z,3.77
2022-11-04T08:38:45.259Z,3.37
2022-11-04T08:41:15.108Z,3.03
2022-11-04T08:43:42.948Z,2.90
2022-11-04T08:46:14.008Z,2.87
2022-11-04T08:48:42.612Z,2.70
2022-11-04T08:51:15.477Z,2.53
2022-11-04T08:53:43.474Z,2.60
2022-11-04T08:56:13.933Z,2.83
2022-11-04T08:58:41.649Z,2.60
2022-11-04T09:01:10.828Z,2.73
2022-11-04T09:03:41.318Z,1.97
2022-11-04T09:06:10.940Z,2.20
2022-11-04T09:08:39.738Z,1.73
2022-11-04T09:11:08.877Z,1.83
2022-11-04T09:13:39.612Z,1.87
2022-11-04T09:16:09.480Z,1.97
2022-11-04T09:18:37.207Z,2.23
2022-11-04T09:21:08.052Z,1.90
2022-11-04T09:23:36.177Z,2.30
2022-11-04T09:26:09.348Z,2.00
2022-11-04T09:28:39.865Z,2.17
2022-11-04T09:31:08.194Z,2.07
2022-11-04T09:33:36.114Z,2.53
2022-11-04T09:36:04.044Z,1.93
2022-11-04T09:38:33.444Z,2.40
2022-11-04T09:41:01.312Z,2.23
2022-11-04T09:43:41.888Z,2.40
2022-11-04T09:46:13.479Z,1.90
2022-11-04T09:48:44.397Z,2.13
2022-11-04T09:51:26.222Z,2.63
2022-11-04T09:54:10.241Z,2.47
2022-11-04T09:56:43.332Z,2.03
2022-11-04T09:59:12.904Z,2.00
2022-11-04T10:01:47.628Z,2.40
2022-11-04T10:04:25.062Z,1.80
2022-11-04T10:07:07.353Z,2.30
2022-11-04T10:09:51.947Z,2.50
2022-11-04T10:12:34.792Z,2.40
2022-11-04T10:15:25.754Z,2.07
2022-11-04T10:18:11.124Z,2.27
2022-11-04T10:20:50.454Z,2.37
2022-11-04T10:23:24.010Z,2.03
2022-11-04T10:25:59.435Z,2.07
2022-11-04T10:28:35.964Z,2.07
2022-11-04T10:31:05.225Z,2.00
2022-11-04T10:33:36.376Z,2.17
2022-11-04T10:36:07.231Z,1.80
2022-11-04T10:38:39.310Z,2.00
2022-11-04T10:41:24.535Z,1.40
2022-11-04T10:43:54.540Z,1.67
2022-11-04T10:46:39.079Z,1.67
2022-11-04T10:49:34.601Z,1.70
2022-11-04T10:52:02.942Z,1.57
2022-11-04T10:54:37.366Z,1.83
2022-11-04T10:57:06.496Z,1.10
2022-11-04T10:59:43.792Z,1.40
2022-11-04T11:02:11.693Z,1.33
2022-11-04T11:04:41.341Z,1.30
2022-11-04T11:07:11.271Z,1.77
2022-11-04T11:09:54.120Z,1.10
2022-11-04T11:12:49.931Z,1.40
2022-11-04T11:15:30.895Z,1.00
2022-11-04T11:18:01.900Z,1.33
2022-11-04T11:20:32.420Z,1.30
2022-11-04T11:23:04.881Z,1.20
2022-11-04T11:25:34.225Z,1.33
2022-11-04T11:28:06.770Z,1.17
2022-11-04T11:30:42.132Z,1.10
2022-11-04T11:33:18.330Z,1.00
2022-11-04T11:35:52.091Z,1.00
2022-11-04T11:38:23.190Z,1.10
2022-11-04T11:41:22.908Z,0.90
2022-11-04T11:43:45.765Z,1.00
2022-11-04T11:46:14.625Z,1.17
2022-11-04T11:48:44.593Z,1.10
2022-11-04T11:51:14.328Z,1.30
2022-11-04T11:53:59.397Z,0.70
2022-11-04T11:56:45.874Z,1.17
2022-11-04T12:02:35.813Z,0.47
2022-11-04T12:10:56.338Z,0.50
2022-11-04T12:13:29.139Z,0.40
2022-11-04T12:16:22.418Z,0.50
2022-11-04T12:19:13.770Z,0.60
2022-11-04T12:21:48.329Z,0.50
2022-11-04T12:24:29.534Z,0.60
2022-11-04T12:27:12.882Z,0.40
2022-11-04T12:29:53.325Z,0.40
2022-11-04T12:32:30.984Z,0.77
2022-11-04T12:35:15.053Z,0.70
2022-11-04T12:37:54.231Z,0.47
2022-11-04T12:40:26.288Z,0.60
2022-11-04T12:43:06.566Z,0.50
2022-11-04T12:45:47.974Z,0.63
2022-11-04T12:48:32.708Z,0.80
2022-11-04T12:51:07.670Z,0.63
2022-11-04T12:54:00.744Z,0.50
2022-11-04T12:56:37.614Z,0.40
2022-11-04T12:59:35.646Z,0.50
2022-11-04T13:02:11.611Z,0.43
2022-11-04T13:04:46.271Z,0.43
2022-11-04T13:07:20.277Z,0.37
2022-11-04T13:09:54.043Z,0.67
2022-11-04T13:12:25.257Z,0.50
2022-11-04T13:14:57.735Z,0.40
2022-11-04T13:17:34.213Z,0.40
2022-11-04T13:20:08.390Z,0.50
2022-11-04T13:22:39.098Z,0.50
2022-11-04T13:25:15.317Z,0.30
2022-11-04T13:27:46.353Z,0.57
2022-11-04T13:30:23.084Z,0.40
2022-11-04T13:32:56.942Z,0.40
2022-11-04T13:35:33.446Z,0.50
2022-11-04T13:38:06.690Z,0.40
2022-11-04T13:40:43.145Z,0.40
2022-11-04T13:43:39.125Z,0.60
2022-11-04T13:46:24.740Z,0.70
2022-11-04T13:48:59.997Z,0.43
2022-11-04T13:51:38.829Z,0.67
2022-11-04T13:54:08.762Z,0.40
2022-11-04T13:56:38.640Z,0.50
2022-11-04T13:59:27.713Z,0.47
2022-11-04T14:02:40.818Z,0.80
2022-11-04T14:05:57.808Z,2.00
2022-11-04T14:08:26.960Z,1.33
2022-11-04T14:11:04.708Z,1.20
2022-11-04T14:14:02.772Z,0.80
2022-11-04T14:16:42.943Z,0.73
2022-11-04T14:20:01.978Z,0.60
2022-11-04T14:22:35.731Z,0.60
2022-11-04T14:25:21.934Z,0.70
2022-11-04T14:27:51.614Z,0.60
2022-11-04T14:30:45.387Z,0.73
2022-11-04T14:33:39.348Z,0.57
2022-11-04T14:36:26.313Z,0.60
2022-11-04T14:38:57.111Z,0.40
2022-11-04T14:41:48.916Z,0.50
2022-11-04T14:44:22.408Z,0.70
2022-11-04T14:46:54.184Z,0.60
2022-11-04T14:49:40.028Z,0.60
2022-11-04T14:52:17.592Z,0.70
2022-11-04T14:54:45.537Z,0.90
2022-11-04T14:57:19.224Z,1.00
2022-11-04T14:59:47.736Z,0.50
2022-11-04T15:02:20.004Z,0.60
2022-11-04T15:04:58.800Z,0.77
2022-11-04T15:07:37.716Z,0.63
2022-11-04T15:10:21.455Z,0.50
2022-11-04T15:12:55.111Z,0.80
2022-11-04T15:15:29.843Z,0.60
2022-11-04T15:18:01.479Z,0.60
2022-11-04T15:20:31.550Z,0.63
2022-11-04T15:23:01.429Z,0.63
2022-11-04T15:25:29.691Z,0.70
2022-11-04T15:27:58.766Z,0.63
2022-11-04T15:30:29.191Z,0.70
2022-11-04T15:32:59.785Z,0.90
2022-11-04T15:35:29.160Z,0.73
2022-11-04T15:37:59.040Z,0.60
2022-11-04T15:40:28.971Z,1.00
2022-11-04T15:43:02.556Z,0.90
2022-11-04T15:45:38.229Z,0.90
2022-11-04T15:48:29.821Z,0.90
2022-11-04T15:51:13.102Z,1.20
2022-11-04T15:53:52.641Z,0.70
2022-11-04T15:56:24.279Z,1.10
2022-11-04T15:58:55.660Z,1.10
2022-11-04T16:01:23.910Z,1.87
2022-11-04T16:03:54.696Z,2.00
2022-11-04T16:06:37.931Z,2.00
2022-11-04T16:09:19.084Z,2.10
2022-11-04T16:12:05.521Z,1.70
2022-11-04T16:14:34.912Z,2.13
2022-11-04T16:17:02.691Z,2.40
2022-11-04T16:19:32.269Z,3.00
2022-11-04T16:22:01.791Z,3.27
2022-11-04T16:24:32.946Z,2.80
2022-11-04T16:27:01.011Z,2.40
2022-11-04T16:29:31.118Z,1.93
2022-11-04T16:32:17.062Z,2.10
2022-11-04T16:34:45.787Z,1.90
2022-11-04T16:37:13.603Z,1.47
2022-11-04T16:39:41.592Z,1.60
2022-11-04T16:42:12.976Z,1.40
2022-11-04T16:44:41.484Z,1.50
2022-11-04T16:47:11.554Z,1.30
2022-11-04T16:49:39.271Z,1.67
2022-11-04T16:52:13.109Z,1.83
2022-11-04T16:54:40.941Z,1.97
2022-11-04T16:57:11.781Z,2.00
2022-11-04T16:59:40.090Z,2.40
2022-11-04T17:02:21.216Z,2.20
2022-11-04T17:04:49.150Z,2.23
2022-11-04T17:07:16.910Z,2.03
2022-11-04T17:09:44.681Z,2.47
2022-11-04T17:12:12.397Z,2.47
2022-11-04T17:14:40.210Z,2.60
2022-11-04T17:17:08.801Z,2.60
2022-11-04T17:19:37.836Z,3.13
2022-11-04T17:22:08.362Z,2.83
2022-11-04T17:24:37.523Z,4.07
2022-11-04T17:27:06.429Z,4.67
2022-11-04T17:29:36.393Z,5.37
2022-11-04T17:32:04.472Z,5.03
2022-11-04T17:34:32.191Z,4.40
2022-11-04T17:37:01.348Z,3.77
2022-11-04T17:39:29.076Z,3.77
2022-11-04T17:42:14.105Z,3.67
2022-11-04T17:44:41.940Z,3.00
2022-11-04T17:47:09.746Z,2.90
2022-11-04T17:49:39.017Z,2.47
2022-11-04T17:52:08.978Z,2.37
2022-11-04T17:54:36.822Z,2.43
2022-11-04T17:57:04.722Z,2.40
2022-11-04T17:59:36.788Z,2.23
2022-11-04T18:02:05.066Z,2.60
2022-11-04T18:04:32.953Z,2.80
2022-11-04T18:07:02.973Z,2.63
2022-11-04T18:09:33.722Z,2.90
2022-11-04T18:12:19.076Z,2.63
2022-11-04T18:14:46.768Z,3.03
2022-11-04T18:17:14.555Z,2.70
2022-11-04T18:19:42.744Z,2.90
2022-11-04T18:22:10.489Z,2.90
2022-11-04T18:24:40.754Z,2.70
2022-11-04T18:27:08.586Z,2.70
2022-11-04T18:29:36.337Z,2.40
2022-11-04T18:32:04.095Z,2.50
2022-11-04T18:34:31.853Z,2.03
2022-11-04T18:37:00.296Z,2.30
2022-11-04T18:39:28.314Z,2.07
2022-11-04T18:41:57.398Z,1.70
2022-11-04T18:44:25.115Z,1.97
2022-11-04T18:46:52.910Z,2.10
2022-11-04T18:49:21.310Z,2.00
2022-11-04T18:51:49.049Z,2.23
2022-11-04T18:54:16.808Z,2.80
2022-11-04T18:56:44.890Z,2.40
2022-11-04T18:59:15.567Z,3.90
2022-11-04T19:01:45.505Z,3.00
2022-11-04T19:04:14.317Z,1.70
2022-11-04T19:06:44.434Z,1.23
2022-11-04T19:09:45.412Z,1.53
2022-11-04T19:12:21.739Z,0.93
2022-11-04T19:14:50.863Z,1.03
2022-11-04T19:17:18.610Z,1.43
2022-11-04T19:19:46.500Z,0.97
2022-11-04T19:22:14.612Z,0.77
2022-11-04T19:24:42.341Z,1.20
2022-11-04T19:27:10.037Z,1.27
2022-11-04T19:29:37.786Z,1.77
2022-11-04T19:32:12.806Z,1.50
2022-11-04T19:34:41.880Z,0.70
2022-11-04T19:37:10.567Z,0.93
2022-11-04T19:39:38.247Z,1.23
2022-11-04T19:42:23.797Z,3.00
2022-11-04T19:44:51.678Z,1.40
2022-11-04T19:47:21.090Z,1.80
2022-11-04T19:49:48.826Z,1.03
2022-11-04T19:52:16.749Z,4.53
2022-11-04T19:54:44.719Z,1.40
2022-11-04T19:57:16.337Z,1.07
2022-11-04T19:59:44.080Z,0.70
2022-11-04T20:02:14.621Z,1.33
2022-11-04T20:04:43.768Z,1.77
2022-11-04T20:07:11.425Z,1.60
2022-11-04T20:09:39.499Z,1.30
2022-11-04T20:12:25.265Z,1.30
2022-11-04T20:14:55.830Z,1.47
2022-11-04T20:17:24.577Z,1.10
2022-11-04T20:19:53.758Z,2.40
2022-11-04T20:22:21.606Z,2.70
2022-11-04T20:24:49.264Z,2.07
2022-11-04T20:27:17.002Z,1.87
2022-11-04T20:29:44.801Z,1.60
2022-11-04T20:32:12.453Z,2.00
2022-11-04T20:34:40.217Z,2.60
2022-11-04T20:37:09.609Z,2.00
2022-11-04T20:39:37.371Z,1.70
2022-11-04T20:42:05.254Z,1.90
2022-11-04T20:44:33.774Z,2.43
2022-11-04T20:47:01.472Z,2.10
2022-11-04T20:49:30.085Z,2.77
2022-11-04T20:51:57.913Z,2.43
2022-11-04T20:54:27.155Z,2.07
2022-11-04T20:56:55.028Z,1.73
2022-11-04T20:59:22.855Z,1.60
2022-11-04T21:01:50.821Z,1.40
2022-11-04T21:04:20.865Z,1.27
2022-11-04T21:06:49.745Z,1.30
2022-11-04T21:09:19.188Z,1.20
2022-11-04T21:11:48.999Z,1.23
2022-11-04T21:14:19.324Z,2.00
2022-11-04T21:16:47.643Z,1.43
2022-11-04T21:19:15.995Z,1.60
2022-11-04T21:21:44.537Z,1.73
2022-11-04T21:24:14.321Z,2.30
2022-11-04T21:26:42.736Z,2.83
2022-11-04T21:29:13.608Z,3.17
2022-11-04T21:31:41.907Z,2.30
2022-11-04T21:34:10.360Z,2.60
2022-11-04T21:36:38.340Z,1.80
2022-11-04T21:39:06.166Z,2.00
2022-11-04T21:41:37.215Z,1.80
2022-11-04T21:44:08.244Z,1.80
2022-11-04T21:46:37.550Z,2.07
2022-11-04T21:49:05.592Z,1.63
2022-11-04T21:51:34.471Z,1.70
2022-11-04T21:54:06.736Z,0.97
2022-11-04T21:56:34.687Z,0.90
2022-11-04T21:59:03.335Z,0.90
2022-11-04T22:01:31.841Z,0.70
2022-11-04T22:04:02.489Z,0.90
2022-11-04T22:06:34.811Z,0.60
2022-11-04T22:09:04.521Z,0.87
2022-11-04T22:11:34.099Z,0.80
2022-11-04T22:14:03.861Z,0.70
2022-11-04T22:16:33.639Z,0.90
2022-11-04T22:19:04.358Z,0.90
2022-11-04T22:21:32.946Z,1.20
2022-11-04T22:24:01.481Z,1.50
2022-11-04T22:26:31.015Z,1.57
2022-11-04T22:28:59.609Z,1.07
2022-11-04T22:31:28.824Z,0.90
2022-11-04T22:33:57.371Z,1.00
2022-11-04T22:36:27.016Z,0.90
2022-11-04T22:38:55.046Z,1.10
2022-11-04T22:41:24.720Z,0.90
2022-11-04T22:43:52.564Z,0.97
2022-11-04T22:46:22.747Z,0.90
2022-11-04T22:48:50.555Z,0.90
2022-11-04T22:51:18.273Z,0.80
2022-11-04T22:53:52.670Z,0.93
2022-11-04T22:56:23.718Z,0.93
2022-11-04T22:58:53.971Z,0.83
2022-11-04T23:01:21.959Z,0.90
2022-11-04T23:03:51.835Z,0.83
2022-11-04T23:06:20.176Z,1.10
2022-11-04T23:08:49.407Z,0.70
2022-11-04T23:11:37.587Z,0.60
2022-11-04T23:14:23.222Z,0.50
2022-11-04T23:17:09.967Z,0.80
2022-11-04T23:19:38.301Z,0.70
2022-11-04T23:22:23.848Z,0.70
2022-11-04T23:25:09.182Z,0.80
2022-11-04T23:27:56.245Z,0.70
2022-11-04T23:30:26.284Z,0.60
2022-11-04T23:32:56.043Z,0.87
2022-11-04T23:35:42.600Z,0.70
2022-11-04T23:38:10.625Z,0.63
2022-11-04T23:40:40.189Z,0.83
2022-11-04T23:43:08.224Z,0.90
2022-11-04T23:45:53.791Z,0.60
2022-11-04T23:48:39.481Z,0.43
2022-11-04T23:51:24.507Z,0.80
2022-11-04T23:54:09.565Z,0.70
2022-11-04T23:56:56.109Z,0.60
2022-11-04T23:59:41.477Z,0.70
